Captree Island, New York
Current Conditions -  °F | °C
As of 6:53 AM on Saturday 01 Nov 2014 (Local Time) from KFRG Reporting Station
Light Rain Light Rain  
Wind Chill: 40°   Ceiling: 6000
Heat Index: 47°   Visibility: 10mi
Dew Point: 40°   Wind: 20mph
Humidity: 77%   Direction: 30°NNE
Pressure: 29.79"   Gusts: 24mph
Location:  40.6311°N, 73.3431°W
Report Text: KFRG 011053Z 03017G21KT 10SM -RA OVC060 08/04 A2979 RMK AO2 RAB28 SLP087 P0001 T00830044
Loading
Personal Weather Stations






























Interactive Weather Map
Tropical Storm Tracking
New forecast layout! Learn more

10-Day Weather Forecast

Advertisements
Track Severe Weather on mobile